Virtual Futura



 METAR AND TAF INFORMATION
METAR FOR ESGJ
ADDS - METARS form results

(1242 UTC 19 July 2019)
Data provider http://aviationweather.gov/metar/data/
 
METAR text: ESGJ 191220Z 18007KT 140V220 CAVOK 24/07 Q1012
Conditions at: ESGJ (JONKOPING AIRPOR, SE) observed 1220 UTC 19 July 2019
Temperature: 24.0°C (75°F)
Dewpoint: 7.0°C (45°F) [RH = 34%]
Pressure (altimeter): 29.88 inches Hg (1012.0 mb)
Winds: from the S (180 degrees) at 8 MPH (7 knots; 3.6 m/s)
Visibility: 6 or more miles (10+ km)
Ceiling: ceiling and visibility are OK
Clouds: unknown
Weather: no significant weather observed at this time

METAR text: ESGJ 191150Z 14008KT CAVOK 24/08 Q1012
Conditions at: ESGJ (JONKOPING AIRPOR, SE) observed 1150 UTC 19 July 2019
Temperature: 24.0°C (75°F)
Dewpoint: 8.0°C (46°F) [RH = 36%]
Pressure (altimeter): 29.88 inches Hg (1012.0 mb)
Winds: from the SE (140 degrees) at 9 MPH (8 knots; 4.1 m/s)
Visibility: 6 or more miles (10+ km)
Ceiling: ceiling and visibility are OK
Clouds: unknown
Weather: no significant weather observed at this time

Forecast for: ESGJ (JONKOPING AIRPOR, SE)
Text: TAF ESGJ 191130Z 1912/1921 16008KT CAVOK
Forecast period: 1200 to 2100 UTC 19 July 2019
Forecast type: FROM: standard forecast or significant change
Winds: from the SSE (160 degrees) at 9 MPH (8 knots; 4.1 m/s)
Visibility: 6 or more miles 10+ km)
Ceiling: unknown
Clouds: missing
Weather: NSW  (no significant weather)

 AIRPORT MAP

 RUNWAY INFORMATION
Runway 01 Runway length 7228 ft Runway width 148 ft
Runway elevation 733 ft Runway displaced threshold 0 ft Runway heading 18
Runway 19 Runway length 7228 ft Runway width 148 ft
Runway elevation 739 ft Runway displaced threshold 0 ft Runway heading 198
Runway 11 Runway length 1969 ft Runway width 82 ft
Runway elevation 727 ft Runway displaced threshold 0 ft Runway heading 114
Runway 29 Runway length 1969 ft Runway width 82 ft
Runway elevation 738 ft Runway displaced threshold 0 ft Runway heading 294

 AIRPORT FREQUENCIES
Type TWR Name TWR Frequency 118.25 MHZ

 AIRPORT NEAR NAVIGATION AIDS
Type VOR-DME Name Jonkoping Frequency 115800 KHZ

Poltica de Cookies

Esta web utiliza cookies para obtener datos estadsticos de la navegacin de sus usuarios. Si continas navegando consideramos que aceptas su uso. Ms informacin X Cerrar